sensor_id;sensor_type;location;lat;lon;timestamp;temperature;humidity
58983;DHT22;44771;49.982;8.560;2023-08-17T00:01:36;16.90;99.90
58983;DHT22;44771;49.982;8.560;2023-08-17T00:06:39;16.80;99.90
58983;DHT22;44771;49.982;8.560;2023-08-17T00:11:41;16.80;99.90
58983;DHT22;44771;49.982;8.560;2023-08-17T00:16:43;16.70;99.90
58983;DHT22;44771;49.982;8.560;2023-08-17T00:21:46;16.60;99.90
58983;DHT22;44771;49.982;8.560;2023-08-17T00:26:48;16.60;99.90
58983;DHT22;44771;49.982;8.560;2023-08-17T00:31:49;16.70;99.90
58983;DHT22;44771;49.982;8.560;2023-08-17T00:36:53;16.50;99.90
58983;DHT22;44771;49.982;8.560;2023-08-17T00:41:54;16.40;99.90
58983;DHT22;44771;49.982;8.560;2023-08-17T00:46:56;16.30;99.90
58983;DHT22;44771;49.982;8.560;2023-08-17T00:52:00;16.30;99.90
58983;DHT22;44771;49.982;8.560;2023-08-17T00:57:02;16.30;99.90
58983;DHT22;44771;49.982;8.560;2023-08-17T01:02:04;16.30;99.90
58983;DHT22;44771;49.982;8.560;2023-08-17T01:07:08;16.10;99.90
58983;DHT22;44771;49.982;8.560;2023-08-17T01:12:17;16.00;99.90
58983;DHT22;44771;49.982;8.560;2023-08-17T01:17:24;15.90;99.90
58983;DHT22;44771;49.982;8.560;2023-08-17T01:22:30;15.70;99.90
58983;DHT22;44771;49.982;8.560;2023-08-17T01:27:39;15.70;99.90
58983;DHT22;44771;49.982;8.560;2023-08-17T01:32:47;15.70;99.90
58983;DHT22;44771;49.982;8.560;2023-08-17T01:37:51;15.70;99.90
58983;DHT22;44771;49.982;8.560;2023-08-17T01:42:55;15.80;99.90
58983;DHT22;44771;49.982;8.560;2023-08-17T01:47:57;15.80;99.90
58983;DHT22;44771;49.982;8.560;2023-08-17T01:52:59;15.90;99.90
58983;DHT22;44771;49.982;8.560;2023-08-17T01:58:02;15.80;99.90
58983;DHT22;44771;49.982;8.560;2023-08-17T02:03:04;15.80;99.90
58983;DHT22;44771;49.982;8.560;2023-08-17T02:08:06;15.70;99.90
58983;DHT22;44771;49.982;8.560;2023-08-17T02:13:11;15.60;99.90
58983;DHT22;44771;49.982;8.560;2023-08-17T02:18:19;15.50;99.90
58983;DHT22;44771;49.982;8.560;2023-08-17T02:23:20;15.40;99.90
58983;DHT22;44771;49.982;8.560;2023-08-17T02:28:23;15.30;99.90
58983;DHT22;44771;49.982;8.560;2023-08-17T02:33:25;15.20;99.90
58983;DHT22;44771;49.982;8.560;2023-08-17T02:38:27;15.30;99.90
58983;DHT22;44771;49.982;8.560;2023-08-17T02:43:30;15.20;99.90
58983;DHT22;44771;49.982;8.560;2023-08-17T02:48:32;15.20;99.90
58983;DHT22;44771;49.982;8.560;2023-08-17T02:53:34;15.20;99.90
58983;DHT22;44771;49.982;8.560;2023-08-17T02:58:37;15.20;99.90
58983;DHT22;44771;49.982;8.560;2023-08-17T03:03:39;15.20;99.90
58983;DHT22;44771;49.982;8.560;2023-08-17T03:08:40;15.20;99.90
58983;DHT22;44771;49.982;8.560;2023-08-17T03:13:44;15.20;99.90
58983;DHT22;44771;49.982;8.560;2023-08-17T03:18:45;15.30;99.90
58983;DHT22;44771;49.982;8.560;2023-08-17T03:23:47;15.30;99.90
58983;DHT22;44771;49.982;8.560;2023-08-17T03:28:51;15.30;99.90
58983;DHT22;44771;49.982;8.560;2023-08-17T03:33:52;15.30;99.90
58983;DHT22;44771;49.982;8.560;2023-08-17T03:38:54;15.20;99.90
58983;DHT22;44771;49.982;8.560;2023-08-17T03:43:57;15.10;99.90
58983;DHT22;44771;49.982;8.560;2023-08-17T03:48:59;14.90;99.90
58983;DHT22;44771;49.982;8.560;2023-08-17T03:54:01;14.90;99.90
58983;DHT22;44771;49.982;8.560;2023-08-17T04:04:16;14.70;99.90
58983;DHT22;44771;49.982;8.560;2023-08-17T04:14:53;14.80;99.90
58983;DHT22;44771;49.982;8.560;2023-08-17T04:19:56;14.80;99.90
58983;DHT22;44771;49.982;8.560;2023-08-17T04:24:58;14.90;99.90
58983;DHT22;44771;49.982;8.560;2023-08-17T04:30:00;14.70;99.90
58983;DHT22;44771;49.982;8.560;2023-08-17T04:35:04;14.60;99.90
58983;DHT22;44771;49.982;8.560;2023-08-17T04:40:07;14.40;99.90
58983;DHT22;44771;49.982;8.560;2023-08-17T04:45:09;14.50;99.90
58983;DHT22;44771;49.982;8.560;2023-08-17T04:50:12;14.50;99.90
58983;DHT22;44771;49.982;8.560;2023-08-17T04:55:14;14.60;99.90
58983;DHT22;44771;49.982;8.560;2023-08-17T05:00:16;14.70;99.90
58983;DHT22;44771;49.982;8.560;2023-08-17T05:05:19;14.70;99.90
58983;DHT22;44771;49.982;8.560;2023-08-17T05:10:21;14.80;99.90
58983;DHT22;44771;49.982;8.560;2023-08-17T05:15:23;14.80;99.90
58983;DHT22;44771;49.982;8.560;2023-08-17T05:20:26;15.00;99.90
58983;DHT22;44771;49.982;8.560;2023-08-17T05:25:28;15.00;99.90
58983;DHT22;44771;49.982;8.560;2023-08-17T05:30:30;15.00;99.90
58983;DHT22;44771;49.982;8.560;2023-08-17T05:35:33;15.10;99.90
58983;DHT22;44771;49.982;8.560;2023-08-17T05:40:35;15.30;99.90
58983;DHT22;44771;49.982;8.560;2023-08-17T05:45:38;15.40;99.90
58983;DHT22;44771;49.982;8.560;2023-08-17T05:50:42;15.50;99.90
58983;DHT22;44771;49.982;8.560;2023-08-17T06:01:05;15.90;99.90
58983;DHT22;44771;49.982;8.560;2023-08-17T06:06:09;16.10;99.90
58983;DHT22;44771;49.982;8.560;2023-08-17T06:11:11;16.30;99.90
58983;DHT22;44771;49.982;8.560;2023-08-17T06:16:13;16.50;99.90
58983;DHT22;44771;49.982;8.560;2023-08-17T06:21:16;16.90;99.90
58983;DHT22;44771;49.982;8.560;2023-08-17T06:26:21;17.30;99.90
58983;DHT22;44771;49.982;8.560;2023-08-17T06:31:23;17.70;99.90
58983;DHT22;44771;49.982;8.560;2023-08-17T06:36:31;17.80;99.90
58983;DHT22;44771;49.982;8.560;2023-08-17T06:41:33;18.00;99.90
58983;DHT22;44771;49.982;8.560;2023-08-17T06:46:35;17.90;99.90
58983;DHT22;44771;49.982;8.560;2023-08-17T06:51:38;17.90;99.90
58983;DHT22;44771;49.982;8.560;2023-08-17T06:56:40;18.00;99.90
58983;DHT22;44771;49.982;8.560;2023-08-17T07:02:58;18.10;99.90
58983;DHT22;44771;49.982;8.560;2023-08-17T07:07:42;18.10;99.90
58983;DHT22;44771;49.982;8.560;2023-08-17T07:12:44;18.20;99.90
58983;DHT22;44771;49.982;8.560;2023-08-17T07:17:46;18.10;99.90
58983;DHT22;44771;49.982;8.560;2023-08-17T07:22:49;18.10;99.90
58983;DHT22;44771;49.982;8.560;2023-08-17T07:27:51;18.40;99.90
58983;DHT22;44771;49.982;8.560;2023-08-17T07:32:53;18.30;99.90
58983;DHT22;44771;49.982;8.560;2023-08-17T07:37:56;18.30;99.90
58983;DHT22;44771;49.982;8.560;2023-08-17T07:43:10;18.30;99.90
58983;DHT22;44771;49.982;8.560;2023-08-17T07:48:11;18.30;99.90
58983;DHT22;44771;49.982;8.560;2023-08-17T07:53:15;18.40;99.90
58983;DHT22;44771;49.982;8.560;2023-08-17T07:58:17;18.30;99.90
58983;DHT22;44771;49.982;8.560;2023-08-17T08:03:18;18.60;99.90
58983;DHT22;44771;49.982;8.560;2023-08-17T08:08:21;18.50;99.90
58983;DHT22;44771;49.982;8.560;2023-08-17T08:13:23;18.50;99.90
58983;DHT22;44771;49.982;8.560;2023-08-17T08:18:25;18.50;99.90
58983;DHT22;44771;49.982;8.560;2023-08-17T08:23:31;18.70;99.90
58983;DHT22;44771;49.982;8.560;2023-08-17T08:28:32;18.80;99.90
58983;DHT22;44771;49.982;8.560;2023-08-17T08:33:34;19.00;99.90
58983;DHT22;44771;49.982;8.560;2023-08-17T08:38:40;19.20;99.90
58983;DHT22;44771;49.982;8.560;2023-08-17T08:43:42;19.00;99.90
58983;DHT22;44771;49.982;8.560;2023-08-17T08:48:50;18.90;99.90
58983;DHT22;44771;49.982;8.560;2023-08-17T08:54:00;19.00;99.90
58983;DHT22;44771;49.982;8.560;2023-08-17T08:59:03;19.00;99.90
58983;DHT22;44771;49.982;8.560;2023-08-17T09:04:06;19.10;99.90
58983;DHT22;44771;49.982;8.560;2023-08-17T09:09:09;19.30;99.90
58983;DHT22;44771;49.982;8.560;2023-08-17T09:14:12;19.70;99.90
58983;DHT22;44771;49.982;8.560;2023-08-17T09:19:14;19.90;99.90
58983;DHT22;44771;49.982;8.560;2023-08-17T09:24:17;20.00;99.90
58983;DHT22;44771;49.982;8.560;2023-08-17T09:29:20;20.10;99.90
58983;DHT22;44771;49.982;8.560;2023-08-17T09:34:22;20.20;99.90
58983;DHT22;44771;49.982;8.560;2023-08-17T09:39:25;20.60;99.90
58983;DHT22;44771;49.982;8.560;2023-08-17T09:44:27;20.60;99.90
58983;DHT22;44771;49.982;8.560;2023-08-17T09:49:31;21.00;99.90
58983;DHT22;44771;49.982;8.560;2023-08-17T09:54:38;21.10;99.90
58983;DHT22;44771;49.982;8.560;2023-08-17T09:59:40;21.60;99.90
58983;DHT22;44771;49.982;8.560;2023-08-17T10:04:42;21.80;99.90
58983;DHT22;44771;49.982;8.560;2023-08-17T10:09:55;22.00;99.90
58983;DHT22;44771;49.982;8.560;2023-08-17T10:15:02;22.30;99.90
58983;DHT22;44771;49.982;8.560;2023-08-17T10:20:05;22.40;99.90
58983;DHT22;44771;49.982;8.560;2023-08-17T10:25:08;22.50;99.90
58983;DHT22;44771;49.982;8.560;2023-08-17T10:30:11;22.90;99.90
58983;DHT22;44771;49.982;8.560;2023-08-17T10:35:13;23.30;99.90
58983;DHT22;44771;49.982;8.560;2023-08-17T10:40:25;23.40;99.90
58983;DHT22;44771;49.982;8.560;2023-08-17T10:45:29;23.70;99.90
58983;DHT22;44771;49.982;8.560;2023-08-17T10:50:33;23.70;99.90
58983;DHT22;44771;49.982;8.560;2023-08-17T10:55:37;23.70;99.90
58983;DHT22;44771;49.982;8.560;2023-08-17T11:00:40;23.80;99.90
58983;DHT22;44771;49.982;8.560;2023-08-17T11:05:43;23.50;99.90
58983;DHT22;44771;49.982;8.560;2023-08-17T11:10:57;23.10;99.90
58983;DHT22;44771;49.982;8.560;2023-08-17T11:16:00;23.10;99.90
58983;DHT22;44771;49.982;8.560;2023-08-17T11:21:06;23.60;99.90
58983;DHT22;44771;49.982;8.560;2023-08-17T11:26:15;24.10;99.90
58983;DHT22;44771;49.982;8.560;2023-08-17T11:31:32;24.40;99.90
58983;DHT22;44771;49.982;8.560;2023-08-17T11:36:34;24.40;99.90
58983;DHT22;44771;49.982;8.560;2023-08-17T11:41:37;24.50;99.90
58983;DHT22;44771;49.982;8.560;2023-08-17T11:46:39;24.60;99.90
58983;DHT22;44771;49.982;8.560;2023-08-17T11:51:41;24.80;99.90
58983;DHT22;44771;49.982;8.560;2023-08-17T11:56:54;25.00;99.90
58983;DHT22;44771;49.982;8.560;2023-08-17T12:01:56;25.00;99.90
58983;DHT22;44771;49.982;8.560;2023-08-17T12:06:58;25.10;99.90
58983;DHT22;44771;49.982;8.560;2023-08-17T12:12:01;25.30;99.90
58983;DHT22;44771;49.982;8.560;2023-08-17T12:17:03;25.30;99.90
58983;DHT22;44771;49.982;8.560;2023-08-17T12:22:07;25.00;99.90
58983;DHT22;44771;49.982;8.560;2023-08-17T12:27:27;24.70;99.90
58983;DHT22;44771;49.982;8.560;2023-08-17T12:32:28;25.00;99.90
58983;DHT22;44771;49.982;8.560;2023-08-17T12:37:30;25.30;99.90
58983;DHT22;44771;49.982;8.560;2023-08-17T12:42:33;25.50;99.90
58983;DHT22;44771;49.982;8.560;2023-08-17T12:47:35;26.10;99.90
58983;DHT22;44771;49.982;8.560;2023-08-17T12:52:37;26.50;99.90
58983;DHT22;44771;49.982;8.560;2023-08-17T12:57:40;26.70;99.90
58983;DHT22;44771;49.982;8.560;2023-08-17T13:02:53;26.80;99.90
58983;DHT22;44771;49.982;8.560;2023-08-17T13:07:55;26.70;99.90
58983;DHT22;44771;49.982;8.560;2023-08-17T13:12:58;26.90;99.90
58983;DHT22;44771;49.982;8.560;2023-08-17T13:18:00;26.40;99.90
58983;DHT22;44771;49.982;8.560;2023-08-17T13:23:01;25.90;99.90
58983;DHT22;44771;49.982;8.560;2023-08-17T13:28:05;25.40;99.90
58983;DHT22;44771;49.982;8.560;2023-08-17T13:33:07;25.10;99.90
58983;DHT22;44771;49.982;8.560;2023-08-17T13:38:09;25.10;99.90
58983;DHT22;44771;49.982;8.560;2023-08-17T13:43:12;25.20;99.90
58983;DHT22;44771;49.982;8.560;2023-08-17T13:48:14;25.20;99.90
58983;DHT22;44771;49.982;8.560;2023-08-17T13:53:16;25.20;99.90
58983;DHT22;44771;49.982;8.560;2023-08-17T13:58:19;25.40;99.90
58983;DHT22;44771;49.982;8.560;2023-08-17T14:03:21;25.60;99.90
58983;DHT22;44771;49.982;8.560;2023-08-17T14:08:23;26.00;99.90
58983;DHT22;44771;49.982;8.560;2023-08-17T14:13:26;26.40;99.90
58983;DHT22;44771;49.982;8.560;2023-08-17T14:18:28;26.10;99.90
58983;DHT22;44771;49.982;8.560;2023-08-17T14:23:30;26.10;99.90
58983;DHT22;44771;49.982;8.560;2023-08-17T14:28:33;26.30;99.90
58983;DHT22;44771;49.982;8.560;2023-08-17T14:33:35;26.60;99.90
58983;DHT22;44771;49.982;8.560;2023-08-17T14:38:36;26.70;99.90
58983;DHT22;44771;49.982;8.560;2023-08-17T14:43:40;26.90;99.90
58983;DHT22;44771;49.982;8.560;2023-08-17T14:48:42;26.90;99.90
58983;DHT22;44771;49.982;8.560;2023-08-17T14:53:46;27.00;99.90
58983;DHT22;44771;49.982;8.560;2023-08-17T14:58:56;26.80;99.90
58983;DHT22;44771;49.982;8.560;2023-08-17T15:03:58;26.80;99.90
58983;DHT22;44771;49.982;8.560;2023-08-17T15:09:00;26.70;99.90
58983;DHT22;44771;49.982;8.560;2023-08-17T15:14:03;26.10;99.90
58983;DHT22;44771;49.982;8.560;2023-08-17T15:19:05;26.00;99.90
58983;DHT22;44771;49.982;8.560;2023-08-17T15:24:07;26.10;99.90
58983;DHT22;44771;49.982;8.560;2023-08-17T15:29:10;26.20;99.90
58983;DHT22;44771;49.982;8.560;2023-08-17T15:34:12;26.20;99.90
58983;DHT22;44771;49.982;8.560;2023-08-17T15:39:14;26.10;99.90
58983;DHT22;44771;49.982;8.560;2023-08-17T15:44:17;26.30;99.90
58983;DHT22;44771;49.982;8.560;2023-08-17T15:49:19;26.20;99.90
58983;DHT22;44771;49.982;8.560;2023-08-17T15:54:21;26.10;99.90
58983;DHT22;44771;49.982;8.560;2023-08-17T15:59:36;25.80;99.90
58983;DHT22;44771;49.982;8.560;2023-08-17T16:04:38;26.00;99.90
58983;DHT22;44771;49.982;8.560;2023-08-17T16:09:40;26.00;99.90
58983;DHT22;44771;49.982;8.560;2023-08-17T16:14:43;26.00;99.90
58983;DHT22;44771;49.982;8.560;2023-08-17T16:19:50;26.00;99.90
58983;DHT22;44771;49.982;8.560;2023-08-17T16:24:52;26.00;99.90
58983;DHT22;44771;49.982;8.560;2023-08-17T16:29:55;25.80;99.90
58983;DHT22;44771;49.982;8.560;2023-08-17T16:34:57;25.70;99.90
58983;DHT22;44771;49.982;8.560;2023-08-17T16:39:58;25.50;99.90
58983;DHT22;44771;49.982;8.560;2023-08-17T16:45:01;25.40;99.90
58983;DHT22;44771;49.982;8.560;2023-08-17T16:50:04;25.40;99.90
58983;DHT22;44771;49.982;8.560;2023-08-17T16:55:06;25.50;99.90
58983;DHT22;44771;49.982;8.560;2023-08-17T17:00:11;25.40;99.90
58983;DHT22;44771;49.982;8.560;2023-08-17T17:05:13;25.10;99.90
58983;DHT22;44771;49.982;8.560;2023-08-17T17:10:15;25.00;99.90
58983;DHT22;44771;49.982;8.560;2023-08-17T17:15:18;24.90;99.90
58983;DHT22;44771;49.982;8.560;2023-08-17T17:20:19;24.90;99.90
58983;DHT22;44771;49.982;8.560;2023-08-17T17:25:21;24.90;99.90
58983;DHT22;44771;49.982;8.560;2023-08-17T17:30:24;25.00;99.90
58983;DHT22;44771;49.982;8.560;2023-08-17T17:35:26;24.80;99.90
58983;DHT22;44771;49.982;8.560;2023-08-17T17:40:28;24.60;99.90
58983;DHT22;44771;49.982;8.560;2023-08-17T17:45:31;24.60;99.90
58983;DHT22;44771;49.982;8.560;2023-08-17T17:50:33;24.30;99.90
58983;DHT22;44771;49.982;8.560;2023-08-17T17:55:34;24.10;99.90
58983;DHT22;44771;49.982;8.560;2023-08-17T18:00:37;23.90;99.90
58983;DHT22;44771;49.982;8.560;2023-08-17T18:05:40;23.70;99.90
58983;DHT22;44771;49.982;8.560;2023-08-17T18:10:43;23.40;99.90
58983;DHT22;44771;49.982;8.560;2023-08-17T18:15:46;23.50;99.90
58983;DHT22;44771;49.982;8.560;2023-08-17T18:20:47;23.40;99.90
58983;DHT22;44771;49.982;8.560;2023-08-17T18:25:49;23.40;99.90
58983;DHT22;44771;49.982;8.560;2023-08-17T18:30:52;23.30;99.90
58983;DHT22;44771;49.982;8.560;2023-08-17T18:35:54;23.20;99.90
58983;DHT22;44771;49.982;8.560;2023-08-17T18:41:05;23.00;99.90
58983;DHT22;44771;49.982;8.560;2023-08-17T18:46:09;22.90;99.90
58983;DHT22;44771;49.982;8.560;2023-08-17T18:51:10;22.80;99.90
58983;DHT22;44771;49.982;8.560;2023-08-17T18:56:12;22.50;99.90
58983;DHT22;44771;49.982;8.560;2023-08-17T19:01:15;22.30;99.90
58983;DHT22;44771;49.982;8.560;2023-08-17T19:06:17;22.30;99.90
58983;DHT22;44771;49.982;8.560;2023-08-17T19:11:19;22.10;99.90
58983;DHT22;44771;49.982;8.560;2023-08-17T19:16:22;22.10;99.90
58983;DHT22;44771;49.982;8.560;2023-08-17T19:21:24;21.80;99.90
58983;DHT22;44771;49.982;8.560;2023-08-17T19:26:26;21.80;99.90
58983;DHT22;44771;49.982;8.560;2023-08-17T19:31:29;21.80;99.90
58983;DHT22;44771;49.982;8.560;2023-08-17T19:36:31;21.70;99.90
58983;DHT22;44771;49.982;8.560;2023-08-17T19:41:33;21.40;99.90
58983;DHT22;44771;49.982;8.560;2023-08-17T19:46:36;21.20;99.90
58983;DHT22;44771;49.982;8.560;2023-08-17T19:51:38;21.00;99.90
58983;DHT22;44771;49.982;8.560;2023-08-17T19:56:40;20.80;99.90
58983;DHT22;44771;49.982;8.560;2023-08-17T20:01:43;20.80;99.90
58983;DHT22;44771;49.982;8.560;2023-08-17T20:06:45;20.70;99.90
58983;DHT22;44771;49.982;8.560;2023-08-17T20:11:47;20.60;99.90
58983;DHT22;44771;49.982;8.560;2023-08-17T20:16:50;20.40;99.90
58983;DHT22;44771;49.982;8.560;2023-08-17T20:21:52;20.30;99.90
58983;DHT22;44771;49.982;8.560;2023-08-17T20:26:54;20.30;99.90
58983;DHT22;44771;49.982;8.560;2023-08-17T20:31:57;20.20;99.90
58983;DHT22;44771;49.982;8.560;2023-08-17T20:36:59;20.10;99.90
58983;DHT22;44771;49.982;8.560;2023-08-17T20:42:06;20.10;99.90
58983;DHT22;44771;49.982;8.560;2023-08-17T20:47:09;19.90;99.90
58983;DHT22;44771;49.982;8.560;2023-08-17T20:52:11;19.90;99.90
58983;DHT22;44771;49.982;8.560;2023-08-17T20:57:13;19.80;99.90
58983;DHT22;44771;49.982;8.560;2023-08-17T21:02:16;19.70;99.90
58983;DHT22;44771;49.982;8.560;2023-08-17T21:07:18;19.50;99.90
58983;DHT22;44771;49.982;8.560;2023-08-17T21:12:20;19.50;99.90
58983;DHT22;44771;49.982;8.560;2023-08-17T21:17:24;19.50;99.90
58983;DHT22;44771;49.982;8.560;2023-08-17T21:22:27;19.40;99.90
58983;DHT22;44771;49.982;8.560;2023-08-17T21:27:28;19.40;99.90
58983;DHT22;44771;49.982;8.560;2023-08-17T21:32:32;19.30;99.90
58983;DHT22;44771;49.982;8.560;2023-08-17T21:37:34;19.50;99.90
58983;DHT22;44771;49.982;8.560;2023-08-17T21:42:35;19.50;99.90
58983;DHT22;44771;49.982;8.560;2023-08-17T21:47:39;19.40;99.90
58983;DHT22;44771;49.982;8.560;2023-08-17T21:52:40;19.50;99.90
58983;DHT22;44771;49.982;8.560;2023-08-17T21:57:42;19.40;99.90
58983;DHT22;44771;49.982;8.560;2023-08-17T22:02:45;19.30;99.90
58983;DHT22;44771;49.982;8.560;2023-08-17T22:07:47;19.30;99.90
58983;DHT22;44771;49.982;8.560;2023-08-17T22:12:49;19.20;99.90
58983;DHT22;44771;49.982;8.560;2023-08-17T22:17:52;19.30;99.90
58983;DHT22;44771;49.982;8.560;2023-08-17T22:22:54;19.20;99.90
58983;DHT22;44771;49.982;8.560;2023-08-17T22:27:56;19.00;99.90
58983;DHT22;44771;49.982;8.560;2023-08-17T22:32:59;19.00;99.90
58983;DHT22;44771;49.982;8.560;2023-08-17T22:38:01;19.10;99.90
58983;DHT22;44771;49.982;8.560;2023-08-17T22:43:03;19.10;99.90
58983;DHT22;44771;49.982;8.560;2023-08-17T22:48:06;19.00;99.90
58983;DHT22;44771;49.982;8.560;2023-08-17T22:53:08;19.00;99.90
58983;DHT22;44771;49.982;8.560;2023-08-17T22:58:10;18.90;99.90
58983;DHT22;44771;49.982;8.560;2023-08-17T23:03:13;18.90;99.90
58983;DHT22;44771;49.982;8.560;2023-08-17T23:08:14;18.80;99.90
58983;DHT22;44771;49.982;8.560;2023-08-17T23:13:16;18.80;99.90
58983;DHT22;44771;49.982;8.560;2023-08-17T23:18:19;18.70;99.90
58983;DHT22;44771;49.982;8.560;2023-08-17T23:23:21;18.70;99.90
58983;DHT22;44771;49.982;8.560;2023-08-17T23:28:23;18.80;99.90
58983;DHT22;44771;49.982;8.560;2023-08-17T23:33:26;18.80;99.90
58983;DHT22;44771;49.982;8.560;2023-08-17T23:38:28;18.80;99.90
58983;DHT22;44771;49.982;8.560;2023-08-17T23:43:30;18.80;99.90
58983;DHT22;44771;49.982;8.560;2023-08-17T23:48:33;18.90;99.90
58983;DHT22;44771;49.982;8.560;2023-08-17T23:53:35;19.10;99.90
58983;DHT22;44771;49.982;8.560;2023-08-17T23:58:37;19.10;99.90
